Stormwatcher's Retreat Logo




                  Temp     Hi    Low   Out    Dew  Wind  Wind   Wind    Hi    Hi   Wind   Heat    THW   THSW                Rain  Solar   Solar Hi Solar   UV    UV    Hi     Heat    Cool    In     In    In     In     In   In Air          Wind  Wind    ISS   Arc.
  Date    Time     Out   Temp   Temp   Hum    Pt. Speed   Dir    Run Speed   Dir  Chill  Index  Index  Index   Bar    Rain  Rate   Rad.  Energy    Rad.  Index  Dose   UV     D-D     D-D    Temp   Hum    Dew   Heat    EMC Density     ET   Samp   Tx   Recept  Int.
------------------------------------------------------------------------------------------------------------------------------------------------------------------------------------------------------------------------------------------------------------------------
 2/04/23 12:10a   51.5   51.7   51.5    90   48.7   8.0     S   1.33  19.0     S   48.3   51.7   48.5   45.5  30.088  0.00  0.00     0     0.00      0     0.0  0.00   0.0   0.094   0.000   69.1    46   47.4   67.3   8.65  .0746    0.000   203    7    100.0   10 
 2/04/23 12:20a   51.5   51.6   51.4    89   48.4   8.0     S   1.33  17.0   SSE   48.3   51.7   48.5   45.5  30.087  0.00  0.00     0     0.00      0     0.0  0.00   0.0   0.094   0.000   69.0    46   47.4   67.2   8.65  .0747    0.000   203    7    100.0   10 
 2/04/23 12:30a   51.4   51.6   51.4    89   48.3   7.0     S   1.17  13.0    SE   48.9   51.6   49.1   45.9  30.085  0.00  0.00     0     0.00      0     0.0  0.00   0.0   0.094   0.000   69.0    46   47.4   67.2   8.65  .0747    0.000   202    7    100.0   10 
 2/04/23 12:40a   51.7   51.7   51.4    89   48.6   8.0     S   1.33  17.0   SSE   48.5   51.9   48.7   45.7  30.077  0.00  0.00     0     0.00      0     0.0  0.00   0.0   0.092   0.000   69.0    46   47.4   67.2   8.65  .0746    0.000   202    7    100.0   10 
 2/04/23 12:50a   51.9   51.9   51.6    88   48.5   7.0     S   1.17  13.0   SSE   49.5   52.0   49.6   46.4  30.078  0.00  0.00     0     0.00      0     0.0  0.00   0.0   0.091   0.000   69.0    46   47.4   67.2   8.65  .0746    0.000   204    7    100.0   10 
 2/04/23  1:00a   52.3   52.3   51.9    87   48.5   8.0     S   1.33  17.0   SSE   49.3   52.4   49.4   46.4  30.077  0.00  0.00     0     0.00      0     0.0  0.00   0.0   0.088   0.000   68.9    46   47.3   67.1   8.65  .0747    0.001   201    7    100.0   10 
 2/04/23  1:10a   52.5   52.5   52.2    86   48.4   8.0     S   1.33  16.0     S   49.5   52.5   49.5   46.5  30.078  0.00  0.00     0     0.00      0     0.0  0.00   0.0   0.087   0.000   68.8    46   47.2   67.0   8.65  .0747    0.000   201    7    100.0   10 
 2/04/23  1:20a   52.5   52.6   52.5    86   48.4   7.0     S   1.17  15.0   SSE   50.2   52.5   50.2   47.0  30.074  0.00  0.00     0     0.00      0     0.0  0.00   0.0   0.087   0.000   68.8    46   47.2   67.0   8.65  .0747    0.000   204    7    100.0   10 
 2/04/23  1:30a   52.7   52.7   52.5    85   48.3   7.0     S   1.17  15.0    SE   50.4   52.6   50.3   47.1  30.072  0.00  0.00     0     0.00      0     0.0  0.00   0.0   0.085   0.000   68.8    46   47.2   67.0   8.65  .0747    0.000   204    7    100.0   10 
 2/04/23  1:40a   52.7   52.8   52.6    84   48.0   8.0     S   1.33  18.0   SSE   49.7   52.6   49.6   46.6  30.071  0.00  0.00     0     0.00      0     0.0  0.00   0.0   0.085   0.000   68.7    46   47.1   66.9   8.65  .0747    0.000   204    7    100.0   10 
 2/04/23  1:50a   53.0   53.1   52.7    84   48.3   9.0     S   1.50  23.0   SSE   49.4   52.9   49.3   46.4  30.065  0.00  0.00     0     0.00      0     0.0  0.00   0.0   0.083   0.000   68.7    46   47.1   66.9   8.65  .0747    0.000   202    7    100.0   10 
 2/04/23  2:00a   52.9   53.1   52.9    83   47.9   8.0     S   1.33  17.0   SSE   50.0   52.7   49.8   46.8  30.068  0.00  0.00     0     0.00      0     0.0  0.00   0.0   0.084   0.000   68.8    46   47.2   67.0   8.65  .0746    0.001   201    7    100.0   10 
 2/04/23  2:10a   52.9   53.0   52.8    83   47.9   7.0     S   1.17  17.0     S   50.7   52.7   50.5   47.3  30.067  0.00  0.00     0     0.00      0     0.0  0.00   0.0   0.084   0.000   68.8    46   47.2   67.0   8.65  .0746    0.000   203    7    100.0   10 
 2/04/23  2:20a   52.8   52.9   52.8    83   47.8   7.0     S   1.17  17.0   SSE   50.6   52.6   50.4   47.2  30.068  0.00  0.00     0     0.00      0     0.0  0.00   0.0   0.085   0.000   68.7    46   47.1   66.9   8.65  .0747    0.000   203    7    100.0   10 
 2/04/23  2:30a   52.4   52.8   52.4    83   47.4   5.0     S   0.83  12.0   SSE   51.0   52.3   50.9   47.7  30.065  0.00  0.00     0     0.00      0     0.0  0.00   0.0   0.087   0.000   68.7    46   47.1   66.9   8.65  .0747    0.000   201    7    100.0   10 
 2/04/23  2:40a   52.0   52.4   52.0    84   47.3   5.0     S   0.83  12.0     S   50.6   52.0   50.6   47.4  30.063  0.00  0.00     0     0.00      0     0.0  0.00   0.0   0.090   0.000   68.6    46   47.0   66.8   8.65  .0747    0.000   204    7    100.0   10 
 2/04/23  2:50a   52.0   52.1   51.9    84   47.3   4.0     S   0.67   9.0     E   51.2   52.0   51.2   48.0  30.060  0.00  0.00     0     0.00      0     0.0  0.00   0.0   0.090   0.000   68.6    46   47.0   66.8   8.65  .0747    0.000   204    7    100.0   10 
 2/04/23  3:00a   51.7   52.0   51.7    84   47.0   4.0     S   0.67  10.0    SE   50.8   51.7   50.8   47.6  30.056  0.00  0.00     0     0.00      0     0.0  0.00   0.0   0.092   0.000   68.5    46   46.9   66.8   8.65  .0747    0.001   203    7    100.0   10 
 2/04/23  3:10a   51.8   51.8   51.5    84   47.1   5.0     S   0.83  12.0    SW   50.4   51.8   50.4   47.2  30.057  0.00  0.00     0     0.00      0     0.0  0.00   0.0   0.092   0.000   68.5    46   46.9   66.8   8.65  .0747    0.000   205    7    100.0   10 
 2/04/23  3:20a   52.4   52.5   51.8    83   47.4   6.0     S   1.00  16.0   SSE   50.5   52.3   50.4   47.2  30.055  0.00  0.00     0     0.00      0     0.0  0.00   0.0   0.087   0.000   68.5    46   46.9   66.8   8.65  .0747    0.000   204    7    100.0   10 
 2/04/23  3:30a   53.0   53.0   52.4    81   47.3   6.0     S   1.00  16.0     S   51.2   52.7   50.9   47.7  30.057  0.00  0.00     0     0.00      0     0.0  0.00   0.0   0.083   0.000   68.5    46   46.9   66.8   8.65  .0747    0.000   202    7    100.0   10 
 2/04/23  3:40a   52.8   53.0   52.7    81   47.1   7.0     S   1.17  19.0     S   50.6   52.6   50.4   47.2  30.046  0.00  0.00     0     0.00      0     0.0  0.00   0.0   0.085   0.000   68.4    46   46.8   66.7   8.65  .0747    0.000   203    7    100.0   10 
 2/04/23  3:50a   53.0   53.2   52.8    80   47.0   6.0     S   1.00  19.0   SSE   51.2   52.7   50.9   47.6  30.042  0.00  0.00     0     0.00      0     0.0  0.00   0.0   0.083   0.000   68.3    46   46.7   66.6   8.65  .0747    0.000   204    7    100.0   10 
 2/04/23  4:00a   53.0   53.0   52.8    80   47.0   6.0     S   1.00  13.0   ESE   51.2   52.7   50.9   47.6  30.037  0.00  0.00     0     0.00      0     0.0  0.00   0.0   0.083   0.000   68.3    46   46.7   66.6   8.65  .0747    0.001   204    7    100.0   10 
 2/04/23  4:10a   53.2   53.2   53.0    79   46.9   6.0     S   1.00  14.0    SW   51.4   52.9   51.1   47.8  30.036  0.00  0.00     0     0.00      0     0.0  0.00   0.0   0.082   0.000   68.3    46   46.7   66.6   8.65  .0746    0.000   203    7    100.0   10 
 2/04/23  4:20a   53.3   53.3   52.9    78   46.6   7.0     S   1.17  17.0   SSE   51.2   52.9   50.8   47.5  30.034  0.00  0.00     0     0.00      0     0.0  0.00   0.0   0.081   0.000   68.3    46   46.7   66.6   8.65  .0746    0.000   202    7    100.0   10 
 2/04/23  4:30a   53.4   53.5   53.3    78   46.7   7.0     S   1.17  16.0     S   51.3   53.0   50.9   47.6  30.029  0.00  0.00     0     0.00      0     0.0  0.00   0.0   0.081   0.000   68.3    46   46.7   66.6   8.65  .0746    0.000   205    7    100.0   10 
 2/04/23  4:40a   53.0   53.4   53.0    78   46.3   5.0     S   0.83  10.0   SSE   51.7   52.6   51.3   48.0  30.021  0.00  0.00     0     0.00      0     0.0  0.00   0.0   0.083   0.000   68.3    46   46.7   66.6   8.65  .0746    0.000   202    7    100.0   10 
 2/04/23  4:50a   52.3   53.0   52.3    79   46.0   4.0     S   0.67  11.0    NE   51.5   52.0   51.2   47.9  30.022  0.00  0.00     0     0.00      0     0.0  0.00   0.0   0.088   0.000   68.2    46   46.6   66.5   8.65  .0746    0.000   203    7    100.0   10 
 2/04/23  5:00a   52.1   52.3   52.1    79   45.8   4.0     S   0.67  10.0   SSE   51.3   51.8   51.0   47.7  30.022  0.00  0.00     0     0.00      0     0.0  0.00   0.0   0.090   0.000   68.2    46   46.6   66.5   8.65  .0746    0.001   205    7    100.0   10 
 2/04/23  5:10a   51.8   52.1   51.8    80   45.8   4.0     S   0.67  11.0     S   51.0   51.6   50.8   47.5  30.021  0.00  0.00     0     0.00      0     0.0  0.00   0.0   0.092   0.000   68.2    46   46.6   66.5   8.65  .0746    0.000   204    7    100.0   10 
 2/04/23  5:20a   52.7   52.7   51.8    78   46.0   5.0     S   0.83  16.0   SSE   51.4   52.3   51.0   47.7  30.019  0.00  0.00     0     0.00      0     0.0  0.00   0.0   0.085   0.000   68.2    46   46.6   66.5   8.65  .0746    0.000   203    7    100.0   10 
 2/04/23  5:30a   52.8   52.9   52.5    78   46.1   6.0     S   1.00  19.0   SSE   51.0   52.4   50.6   47.3  30.018  0.00  0.00     0     0.00      0     0.0  0.00   0.0   0.085   0.000   68.2    46   46.6   66.5   8.65  .0746    0.000   203    7    100.0   10 
 2/04/23  5:40a   53.0   53.0   52.7    77   46.0   6.0     S   1.00  16.0     S   51.2   52.6   50.8   47.5  30.015  0.00  0.00     0     0.00      0     0.0  0.00   0.0   0.083   0.000   68.2    46   46.6   66.5   8.65  .0746    0.000   204    7    100.0   10 
 2/04/23  5:50a   53.5   53.5   53.0    76   46.1   7.0     S   1.17  14.0     S   51.4   53.0   50.9   47.6  30.011  0.00  0.00     0     0.00      0     0.0  0.00   0.0   0.080   0.000   68.3    46   46.7   66.6   8.65  .0746    0.000   202    7    100.0   10 
 2/04/23  6:00a   53.3   53.5   53.3    78   46.6   5.0     S   0.83  20.0   SSE   52.1   52.9   51.7   48.4  30.010  0.00  0.00     0     0.00      0     0.0  0.00   0.0   0.081   0.000   68.4    46   46.8   66.7   8.65  .0746    0.001   203    7    100.0   10 
 2/04/23  6:10a   52.6   53.3   52.6    78   45.9   3.0     S   0.50  10.0   SSE   52.6   52.3   52.3   49.0  30.010  0.00  0.00     0     0.00      0     0.0  0.00   0.0   0.086   0.000   68.6    46   47.0   66.8   8.65  .0745    0.000   204    7    100.0   10 
 2/04/23  6:20a   52.2   52.6   52.2    79   45.9   3.0     S   0.50  10.0     E   52.1   51.9   51.8   48.5  30.011  0.00  0.00     0     0.00      0     0.0  0.00   0.0   0.089   0.000   68.7    46   47.1   66.9   8.65  .0745    0.000   204    7    100.0   10 
 2/04/23  6:30a   51.5   52.2   51.5    80   45.5   3.0     S   0.50   8.0   ENE   51.4   51.3   51.2   47.9  30.007  0.00  0.00     0     0.00      0     0.0  0.00   0.0   0.094   0.000   68.8    46   47.2   67.0   8.65  .0745    0.000   203    7    100.0   10 
 2/04/23  6:40a   51.5   51.6   51.5    80   45.5   3.0   SSE   0.50   9.0    SE   51.4   51.3   51.2   47.9  30.005  0.00  0.00     0     0.00      0     0.0  0.00   0.0   0.094   0.000   68.9    46   47.3   67.1   8.65  .0745    0.000   204    7    100.0   10 
 2/04/23  6:50a   52.0   52.1   51.5    79   45.7   4.0    SE   0.67   9.0    SE   51.2   51.8   51.0   47.7  29.998  0.00  0.00     0     0.00      0     0.0  0.00   0.0   0.090   0.000   69.1    46   47.4   67.3   8.65  .0744    0.000   202    7    100.0   10 
 2/04/23  7:00a   52.3   52.3   52.0    79   46.0   4.0    SE   0.67  13.0     E   51.5   52.0   51.2   47.9  29.993  0.00  0.00     0     0.00      0     0.0  0.00   0.0   0.088   0.000   69.2    46   47.5   67.3   8.65  .0744    0.001   204    7    100.0   10 
 2/04/23  7:10a   52.1   52.4   52.1    79   45.8   3.0     S   0.50  13.0   SSE   52.0   51.8   51.7   48.4  29.992  0.00  0.00     0     0.00      0     0.0  0.00   0.0   0.090   0.000   69.3    46   47.6   67.4   8.65  .0744    0.000   202    7    100.0   10 
 2/04/23  7:20a   52.1   52.1   52.0    79   45.8   3.0     S   0.50  11.0     E   52.0   51.8   51.7   48.4  29.994  0.00  0.00     0     0.00      0     0.0  0.00   0.0   0.090   0.000   69.5    46   47.8   67.6   8.65  .0743    0.000   202    7    100.0   10 
 2/04/23  7:30a   52.3   52.3   52.0    78   45.6   3.0     S   0.50  13.0   ENE   52.2   52.0   51.9   48.6  29.994  0.00  0.00     0     0.00      0     0.0  0.00   0.0   0.088   0.000   69.6    46   47.9   67.6   8.65  .0743    0.000   204    7    100.0   10 
 2/04/23  7:40a   52.0   52.4   52.0    78   45.4   3.0     S   0.50   8.0    SE   51.9   51.7   51.6   48.3  29.992  0.00  0.00     0     0.00      0     0.0  0.00   0.0   0.090   0.000   69.8    46   48.1   67.8   8.65  .0743    0.000   201    7    100.0   10 
 2/04/23  7:50a   52.3   52.3   52.0    78   45.6   3.0     S   0.50   9.0    SE   52.2   52.0   51.9   48.6  29.995  0.00  0.00     0     0.00      0     0.0  0.00   0.0   0.088   0.000   69.9    46   48.2   67.8   8.65  .0743    0.000   203    7    100.0   10 
 2/04/23  8:00a   52.1   52.4   52.1    78   45.4   3.0   ESE   0.50   7.0   ENE   52.0   51.8   51.7   48.5  29.995  0.00  0.00     5     0.07      9     0.0  0.00   0.0   0.090   0.000   70.0    46   48.3   67.9   8.65  .0743    0.001   204    7    100.0   10 
 2/04/23  8:10a   52.2   52.3   52.1    78   45.5   3.0   ESE   0.50  11.0   ESE   52.1   51.9   51.8   48.7  29.991  0.00  0.00    11     0.16     11     0.0  0.00   0.0   0.089   0.000   70.2    46   48.4   68.2   8.65  .0742    0.000   202    7    100.0   10 
 2/04/23  8:20a   52.0   52.2   51.9    78   45.4   3.0     E   0.50  10.0   ENE   51.9   51.7   51.6   48.7  29.985  0.00  0.00    19     0.27     26     0.0  0.00   0.0   0.090   0.000   70.4    45   48.0   68.3   8.45  .0742    0.000   202    7    100.0   10 
 2/04/23  8:30a   51.8   52.0   51.8    78   45.2   3.0   ESE   0.50  10.0    SE   51.7   51.5   51.4   48.8  29.984  0.00  0.00    32     0.46     39     0.0  0.00   0.0   0.092   0.000   70.5    45   48.1   68.4   8.45  .0742    0.000   203    7    100.0   10 
 2/04/23  8:40a   51.8   51.9   51.7    78   45.2   4.0     E   0.67  10.0     E   51.0   51.5   50.7   48.3  29.979  0.00  0.00    42     0.60     46     0.0  0.00   0.0   0.092   0.000   70.6    45   48.2   68.6   8.45  .0741    0.000   203    7    100.0   10 
 2/04/23  8:50a   51.9   51.9   51.8    78   45.3   4.0   ESE   0.67  11.0   ESE   51.1   51.6   50.8   50.9  29.983  0.00  0.00    47     0.67     47     0.0  0.00   0.0   0.091   0.000   70.8    45   48.4   68.8   8.45  .0741    0.000   204    7    100.0   10 
 2/04/23  9:00a   51.9   52.0   51.9    78   45.3   4.0     E   0.67   9.0    SE   51.1   51.6   50.8   50.5  29.978  0.00  0.00    39     0.56     46     0.0  0.00   0.0   0.091   0.000   70.9    45   48.5   69.0   8.45  .0741    0.001   202    7    100.0   10 
 2/04/23  9:10a   51.9   52.0   51.9    78   45.3   4.0     E   0.67  11.0   ENE   51.1   51.6   50.8   50.4  29.978  0.00  0.00    36     0.52     39     0.0  0.00   0.0   0.091   0.000   71.0    45   48.6   69.1   8.45  .0741    0.000   203    7    100.0   10 
 2/04/23  9:20a   52.0   52.1   51.9    78   45.4   3.0     E   0.50  10.0     E   51.9   51.7   51.6   52.0  29.970  0.00  0.00    55     0.79     77     0.0  0.00   0.0   0.090   0.000   71.1    45   48.7   69.3   8.45  .0740    0.000   202    7    100.0   10 
 2/04/23  9:30a   52.2   52.2   52.0    78   45.5   4.0     E   0.67  10.0   ESE   51.4   51.9   51.1   53.7  29.969  0.00  0.00   110     1.58    141     0.0  0.00   0.0   0.089   0.000   71.2    45   48.8   69.4   8.45  .0740    0.000   205    7    100.0   10 
 2/04/23  9:40a   52.8   52.8   52.2    77   45.8   3.0     E   0.50   9.0   ESE   52.8   52.4   52.4   56.6  29.964  0.00  0.00   159     2.28    185     0.1  0.01   0.5   0.085   0.000   71.2    45   48.8   69.4   8.45  .0740    0.000   203    7    100.0   10 
 2/04/23  9:50a   53.4   53.4   52.8    76   46.0   3.0   ESE   0.50   8.0    SE   53.4   52.9   52.9   57.6  29.961  0.00  0.00   172     2.47    204     0.5  0.04   0.5   0.081   0.000   71.2    45   48.8   69.4   8.45  .0740    0.000   204    7    100.0   10 
 2/04/23 10:00a   53.9   53.9   53.4    75   46.2   3.0   SSE   0.50   9.0    SE   53.9   53.4   53.4   58.2  29.960  0.00  0.00   178     2.55    206     0.5  0.04   0.6   0.077   0.000   71.3    45   48.9   69.6   8.45  .0740    0.003   201    7    100.0   10 
 2/04/23 10:10a   54.3   54.3   53.9    75   46.5   3.0   SSE   0.50   9.0    SE   54.3   53.8   53.8   58.8  29.955  0.00  0.00   184     2.64    195     0.6  0.04   0.6   0.074   0.000   71.4    45   48.9   69.7   8.45  .0739    0.000   198    7    100.0   10 
 2/04/23 10:20a   54.7   54.7   54.3    73   46.2   3.0     S   0.50  15.0     E   54.7   54.1   54.1   60.6  29.952  0.00  0.00   236     3.38    258     0.6  0.04   0.7   0.072   0.000   71.4    45   48.9   69.7   8.45  .0739    0.000   203    7    100.0   10 
 2/04/23 10:30a   55.7   55.7   54.7    72   46.8   3.0     S   0.50  10.0   ESE   55.7   55.0   55.0   67.1  29.947  0.00  0.00   431     6.18    504     0.9  0.06   1.0   0.065   0.000   71.6    44   48.5   69.9   8.32  .0739    0.000   202    7    100.0   10 
 2/04/23 10:40a   56.2   56.2   55.7    70   46.5   4.0     S   0.67  15.0   SSE   56.0   55.4   55.2   67.6  29.946  0.00  0.00   449     6.44    585     1.1  0.08   1.2   0.061   0.000   71.7    44   48.6   70.0   8.32  .0739    0.000   203    7    100.0   10 
 2/04/23 10:50a   57.2   57.2   56.3    66   45.9   5.0     S   0.83  16.0     S   56.6   56.2   55.6   69.6  29.944  0.00  0.00   505     7.24    608     1.2  0.09   1.2   0.054   0.000   71.7    44   48.6   70.0   8.32  .0739    0.000   205    7    100.0   10 
 2/04/23 11:00a   56.6   57.2   56.6    67   45.8   4.0     S   0.67   9.0     S   56.5   55.7   55.6   62.5  29.944  0.00  0.00   258     3.70    353     0.8  0.06   1.0   0.058   0.000   71.8    44   48.7   70.2   8.31  .0739    0.008   201    7    100.0   10 
 2/04/23 11:10a   56.2   56.6   55.9    64   44.2   5.0     S   0.83  11.0   SSE   55.5   55.1   54.4   56.5  29.939  0.00  0.00   113     1.62    169     0.2  0.01   0.5   0.061   0.000   71.7    44   48.6   70.0   8.32  .0739    0.000   198    7    100.0   10 
 2/04/23 11:20a   55.9   56.3   55.8    65   44.3   3.0     S   0.50   8.0   SSW   55.9   54.9   54.9   56.0  29.937  0.00  0.00    86     1.23    104     0.0  0.00   0.0   0.063   0.000   71.7    44   48.6   70.0   8.32  .0739    0.000   204    7    100.0   10 
 2/04/23 11:30a   55.8   56.0   55.8    66   44.6   2.0     S   0.33   6.0     S   55.8   54.8   54.8   55.4  29.930  0.00  0.00    72     1.03     98     0.0  0.00   0.0   0.064   0.000   71.7    44   48.6   70.0   8.32  .0738    0.000   204    7    100.0   10 
 2/04/23 11:40a   55.0   55.9   55.0    69   45.0   2.0     S   0.33   4.0   SSW   55.0   54.2   54.2   54.1  29.925  0.00  0.00    56     0.80     65     0.0  0.00   0.0   0.069   0.000   71.8    44   48.7   70.2   8.31  .0738    0.000   204    7    100.0   10 
 2/04/23 11:50a   54.5   55.0   54.5    72   45.7   1.0     S   0.17   4.0   SSE   54.5   53.8   53.8   54.5  29.918  0.00  0.00    75     1.08     88     0.0  0.00   0.0   0.073   0.000   71.9    44   48.8   70.4   8.31  .0738    0.000   204    7    100.0   10 
 2/04/23 12:00p   54.8   54.8   54.2    67   44.0   3.0     S   0.50  11.0   ENE   54.8   53.9   53.9   54.8  29.908  0.00  0.00    81     1.16     88     0.2  0.01   0.5   0.071   0.000   72.0    44   48.9   70.5   8.31  .0737    0.002   200    7    100.0   10 
 2/04/23 12:10p   55.7   55.7   54.8    66   44.5   2.0    SE   0.33   8.0    SE   55.7   54.7   54.7   56.4  29.903  0.00  0.00   102     1.46    128     0.4  0.03   0.6   0.065   0.000   72.0    44   48.9   70.5   8.31  .0737    0.000   204    7    100.0   10 
 2/04/23 12:20p   55.6   55.8   55.6    66   44.4   3.0     E   0.50   7.0    SE   55.6   54.6   54.6   53.8  29.899  0.00  0.00    39     0.56     58     0.0  0.00   0.0   0.065   0.000   72.0    44   48.9   70.5   8.31  .0737    0.000   201    7    100.0   10 
 2/04/23 12:30p   55.3   55.6   55.3    67   44.5   2.0     E   0.33   9.0     E   55.3   54.4   54.4   53.8  29.898  0.00  0.00    44     0.63     47     0.0  0.00   0.0   0.067   0.000   71.9    44   48.8   70.4   8.31  .0737    0.000   203    7    100.0   10 
 2/04/23 12:40p   55.2   55.3   55.1    66   44.0   4.0     E   0.67  11.0     E   54.8   54.2   53.8   53.0  29.893  0.00  0.00    38     0.54     42     0.0  0.00   0.0   0.068   0.000   71.9    44   48.8   70.4   8.31  .0737    0.000   204    7    100.0   10 
 2/04/23 12:50p   55.3   55.3   55.1    66   44.1   3.0     E   0.50   8.0     E   55.3   54.3   54.3   55.6  29.887  0.00  0.00    89     1.28    120     0.2  0.01   0.6   0.067   0.000   72.0    44   48.9   70.5   8.31  .0737    0.000   200    7    100.0   10 
 2/04/23  1:00p   55.6   55.6   55.3    66   44.4   3.0     E   0.50  10.0   ESE   55.6   54.6   54.6   57.2  29.870  0.00  0.00   125     1.79    144     0.7  0.05   0.7   0.065   0.000   71.9    44   48.8   70.4   8.31  .0737    0.002   203    7    100.0   10 
 2/04/23  1:10p   55.7   55.8   55.6    66   44.5   2.0     E   0.33   8.0     E   55.7   54.7   54.7   58.0  29.869  0.00  0.00   145     2.08    165     0.7  0.05   0.8   0.065   0.000   72.0    44   48.9   70.5   8.31  .0736    0.000   201    7    100.0   10 
 2/04/23  1:20p   55.9   55.9   55.7    64   43.9   3.0   ESE   0.50   9.0   ENE   55.9   54.8   54.8   57.5  29.863  0.00  0.00   126     1.81    137     0.6  0.04   0.6   0.063   0.000   72.1    44   49.0   70.7   8.31  .0736    0.000   204    7    100.0   10 
 2/04/23  1:30p   56.5   56.5   55.9    62   43.6   4.0   SSE   0.67  15.0   SSW   56.4   55.3   55.2   58.6  29.856  0.00  0.00   146     2.09    172     0.6  0.04   0.7   0.059   0.000   72.1    44   49.0   70.7   8.31  .0736    0.000   202    7    100.0   10 
 2/04/23  1:40p   56.4   56.5   56.3    59   42.2   4.0     S   0.67  10.0     E   56.3   55.0   54.9   56.0  29.838  0.00  0.00    81     1.16    128     0.2  0.01   0.6   0.060   0.000   72.1    45   49.6   70.8   8.45  .0735    0.000   203    7    100.0   10 
 2/04/23  1:50p   57.0   57.0   56.4    55   41.0   5.0     S   0.83  19.0   ENE   56.4   55.4   54.8   55.2  29.827  0.00  0.00    66     0.95     72     0.0  0.00   0.0   0.056   0.000   72.0    45   49.5   70.6   8.45  .0735    0.000   204    7    100.0   10 
 2/04/23  2:00p   56.1   57.1   56.1    61   42.8   6.0     E   1.00  14.0     E   54.9   54.9   53.7   55.0  29.832  0.00  0.00    85     1.22     88     0.0  0.00   0.0   0.062   0.000   71.9    45   49.4   70.4   8.45  .0736    0.003   202    7    100.0   10 
 2/04/23  2:10p   55.3   56.1   55.3    65   43.7   6.0     E   1.00  13.0    SE   54.0   54.3   53.0   54.2  29.829  0.00  0.00    81     1.16     88     0.0  0.00   0.0   0.067   0.000   71.6    45   49.1   70.0   8.45  .0736    0.000   202    7    100.0   10 
 2/04/23  2:20p   54.7   55.3   54.7    67   44.0   7.0     E   1.17  13.0   ESE   52.8   53.8   51.9   52.3  29.826  0.00  0.00    59     0.85     72     0.0  0.00   0.0   0.072   0.000   71.5    45   49.0   69.8   8.45  .0736    0.000   203    7    100.0   10 
 2/04/23  2:30p   54.3   54.7   54.3    68   44.0   6.0     E   1.00  16.0   ESE   52.8   53.5   52.0   52.1  29.816  0.00  0.00    52     0.75     77     0.0  0.00   0.0   0.074   0.000   71.5    45   49.0   69.8   8.45  .0736    0.000   200    7    100.0   10 
 2/04/23  2:40p   54.7   54.7   54.3    66   43.6   7.0     E   1.17  15.0   SSE   52.8   53.7   51.8   52.9  29.805  0.00  0.00    75     1.08     83     0.0  0.00   0.0   0.072   0.000   71.6    45   49.1   70.0   8.45  .0735    0.000   204    7    100.0   10 
 2/04/23  2:50p   54.9   55.0   54.7    66   43.7   5.0     E   0.83  13.0   ENE   54.0   53.9   53.0   53.7  29.803  0.00  0.00    64     0.92     70     0.0  0.00   0.0   0.070   0.000   71.8    45   49.3   70.3   8.45  .0735    0.000   198    7    100.0   10 
 2/04/23  3:00p   55.1   55.1   54.9    64   43.1   4.0     E   0.67   7.0     E   54.7   54.0   53.6   54.9  29.798  0.00  0.00    77     1.10     81     0.0  0.00   0.0   0.069   0.000   71.9    45   49.4   70.4   8.45  .0735    0.003   203    7    100.0   10 
 2/04/23  3:10p   55.5   55.5   55.1    62   42.7   3.0     E   0.50   8.0   SSE   55.5   54.3   54.3   55.2  29.793  0.00  0.00    69     0.99     72     0.0  0.00   0.0   0.066   0.000   72.0    45   49.5   70.6   8.45  .0734    0.000   204    7    100.0   10 
 2/04/23  3:20p   55.5   55.6   55.5    62   42.7   3.0     E   0.50   8.0    SE   55.5   54.3   54.3   54.5  29.798  0.00  0.00    52     0.75     60     0.0  0.00   0.0   0.066   0.000   72.0    45   49.5   70.6   8.45  .0734    0.000   205    7    100.0   10 
 2/04/23  3:30p   55.6   55.7   55.5    61   42.4   2.0     S   0.33   6.0     E   55.6   54.4   54.4   52.9  29.805  0.00  0.00    64     0.92     79     0.0  0.00   0.0   0.065   0.000   72.0    45   49.5   70.6   8.45  .0735    0.000   204    7    100.0   10 
 2/04/23  3:40p   56.4   56.4   55.6    58   41.8   3.0     S   0.50  13.0   SSE   56.4   55.0   55.0   54.6  29.801  0.00  0.00   115     1.65    142     0.0  0.00   0.0   0.060   0.000   72.0    45   49.5   70.6   8.45  .0735    0.000   204    7    100.0   10 
 2/04/23  3:50p   57.0   57.0   56.4    57   41.9   4.0     E   0.67  13.0   ESE   57.0   55.5   55.5   54.5  29.795  0.00  0.00    89     1.28    130     0.0  0.00   0.0   0.056   0.000   72.0    45   49.5   70.6   8.45  .0734    0.000   203    7    100.0   10 
 2/04/23  4:00p   56.5   57.0   56.5    59   42.3   4.0     E   0.67  10.0     E   56.4   55.1   55.0   53.1  29.785  0.00  0.00    45     0.65     69     0.0  0.00   0.0   0.059   0.000   72.0    45   49.5   70.6   8.45  .0734    0.003   202    7    100.0   10 
 2/04/23  4:10p   56.1   56.5   56.1    60   42.4   4.0     E   0.67   9.0    SE   55.9   54.8   54.6   54.2  29.779  0.00  0.00   111     1.59    125     0.0  0.00   0.0   0.062   0.000   71.8    45   49.3   70.3   8.45  .0734    0.000   203    7    100.0   10 
 2/04/23  4:20p   56.0   56.2   56.0    60   42.3   5.0     E   0.83  11.0    SE   55.3   54.7   54.0   52.5  29.773  0.00  0.00    64     0.92    100     0.0  0.00   0.0   0.063   0.000   71.7    45   49.2   70.1   8.45  .0734    0.000   203    7    100.0   10 
 2/04/23  4:30p   55.4   56.0   55.4    62   42.6   7.0     E   1.17  14.0   ENE   53.7   54.2   52.5   50.5  29.756  0.00  0.00    41     0.59     53     0.0  0.00   0.0   0.067   0.000   71.7    45   49.2   70.1   8.45  .0734    0.000   202    7    100.0   10 
 2/04/23  4:40p   55.4   55.5   55.4    62   42.6   7.0     E   1.17  13.0   ENE   53.7   54.2   52.5   50.5  29.751  0.00  0.00    41     0.59     51     0.0  0.00   0.0   0.067   0.000   71.7    45   49.2   70.1   8.45  .0734    0.000   203    7    100.0   10 
 2/04/23  4:50p   54.9   55.4   54.9    63   42.5   8.0     E   1.33  12.0     E   52.4   53.8   51.3   49.0  29.746  0.00  0.00    27     0.39     30     0.0  0.00   0.0   0.070   0.000   71.7    45   49.2   70.1   8.45  .0734    0.000   204    7    100.0   10 
 2/04/23  5:00p   54.4   54.9   54.4    64   42.5   7.0     E   1.17  13.0    NE   52.5   53.4   51.5   48.9  29.738  0.00  0.00    16     0.23     21     0.0  0.00   0.0   0.074   0.000   71.7    45   49.2   70.1   8.45  .0733    0.003   202    7    100.0   10 
 2/04/23  5:10p   54.0   54.4   54.0    65   42.5   8.0     E   1.33  14.0     E   51.3   53.0   50.3   47.6  29.732  0.00  0.00     8     0.11     11     0.0  0.00   0.0   0.076   0.000   71.8    45   49.3   70.3   8.45  .0733    0.000   204    7    100.0   10 
 2/04/23  5:20p   53.6   54.0   53.6    66   42.5   7.0     E   1.17  14.0   ESE   51.5   52.7   50.6   47.7  29.728  0.00  0.00     5     0.07      7     0.0  0.00   0.0   0.079   0.000   71.9    45   49.4   70.4   8.45  .0733    0.000   204    7    100.0   10 
 2/04/23  5:30p   53.1   53.6   53.1    68   42.8   7.0     E   1.17  13.0     E   50.9   52.3   50.1   47.1  29.723  0.00  0.00     0     0.00      0     0.0  0.00   0.0   0.083   0.000   72.0    45   49.5   70.6   8.45  .0733    0.000   204    7    100.0   10 
 2/04/23  5:40p   52.7   53.1   52.6    69   42.8   8.0     E   1.33  12.0   ENE   49.7   52.0   49.0   46.2  29.722  0.00  0.00     0     0.00      0     0.0  0.00   0.0   0.085   0.000   72.1    45   49.6   70.8   8.45  .0732    0.000   204    7    100.0   10 
 2/04/23  5:50p   52.4   52.7   52.3    70   42.9   7.0     E   1.17  11.0   SSE   50.1   51.8   49.5   46.5  29.719  0.00  0.00     0     0.00      0     0.0  0.00   0.0   0.087   0.000   72.2    45   49.7   70.9   8.45  .0732    0.000   204    7    100.0   10 
 2/04/23  6:00p   52.1   52.3   52.0    71   43.0   6.0     E   1.00  12.0     E   50.1   51.5   49.5   46.5  29.714  0.00  0.00     0     0.00      0     0.0  0.00   0.0   0.090   0.000   72.4    45   49.9   71.2   8.45  .0732    0.002   202    7    100.0   10 
 2/04/23  6:10p   51.8   52.1   51.8    71   42.7   7.0   ENE   1.17  12.0    SE   49.4   51.3   48.9   45.9  29.710  0.00  0.00     0     0.00      0     0.0  0.00   0.0   0.092   0.000   72.5    45   49.9   71.3   8.45  .0731    0.000   202    7    100.0   10 
 2/04/23  6:20p   51.6   51.9   51.6    72   42.9   7.0   ENE   1.17  14.0     E   49.1   51.1   48.6   45.6  29.703  0.00  0.00     0     0.00      0     0.0  0.00   0.0   0.093   0.000   72.6    45   50.0   71.5   8.45  .0731    0.000   203    7    100.0   10 
 2/04/23  6:30p   51.3   51.7   51.3    73   42.9   7.0   ENE   1.17  15.0   ENE   48.8   50.9   48.4   45.4  29.700  0.00  0.00     0     0.00      0     0.0  0.00   0.0   0.095   0.000   72.7    45   50.1   71.6   8.45  .0731    0.000   202    7    100.0   10 
 2/04/23  6:40p   51.1   51.3   51.1    73   42.7   9.0   ENE   1.50  16.0   ENE   47.2   50.7   46.8   44.1  29.700  0.00  0.00     0     0.00      0     0.0  0.00   0.0   0.097   0.000   72.7    45   50.1   71.6   8.45  .0731    0.000   204    7    100.0   10 
 2/04/23  6:50p   50.8   51.1   50.8    74   42.8   8.0   ENE   1.33  14.0     E   47.5   50.5   47.2   44.4  29.696  0.00  0.00     0     0.00      0     0.0  0.00   0.0   0.099   0.000   72.9    45   50.3   71.9   8.45  .0730    0.000   204    7    100.0   10 
 2/04/23  7:00p   50.7   50.8   50.6    75   43.1   9.0   ENE   1.50  15.0   ENE   46.7   50.4   46.4   43.8  29.688  0.00  0.00     0     0.00      0     0.0  0.00   0.0   0.099   0.000   72.9    45   50.3   71.9   8.45  .0730    0.002   202    7    100.0   10 
 2/04/23  7:10p   50.6   50.7   50.5    75   43.0   8.0   ENE   1.33  16.0     E   47.2   50.3   46.9   44.1  29.686  0.00  0.00     0     0.00      0     0.0  0.00   0.0   0.100   0.000   73.0    45   50.4   72.1   8.45  .0730    0.000   202    7    100.0   10 
 2/04/23  7:20p   50.5   50.6   50.5    75   42.9   3.0     S   0.50   8.0     E   50.3   50.3   50.1   47.1  29.688  0.00  0.00     0     0.00      0     0.0  0.00   0.0   0.101   0.000   72.9    45   50.3   71.9   8.45  .0730    0.000   203    7    100.0   10 
 2/04/23  7:30p   50.5   50.5   50.3    75   42.9   3.0     S   0.50  10.0   ENE   50.3   50.3   50.1   47.1  29.685  0.00  0.00     0     0.00      0     0.0  0.00   0.0   0.101   0.000   72.6    45   50.0   71.5   8.45  .0731    0.000   202    7    100.0   10 
 2/04/23  7:40p   50.8   50.9   50.5    74   42.8   3.0     S   0.50  12.0   ESE   50.6   50.5   50.3   47.3  29.683  0.00  0.00     0     0.00      0     0.0  0.00   0.0   0.099   0.000   72.4    45   49.9   71.2   8.45  .0731    0.000   202    7    100.0   10 
 2/04/23  7:50p   51.8   51.8   50.7    73   43.4   3.0     S   0.50  10.0   SSE   51.7   51.3   51.2   48.3  29.670  0.00  0.00     0     0.00      0     0.0  0.00   0.0   0.092   0.000   72.2    46   50.3   71.0   8.61  .0731    0.000   203    7    100.0   10 
 2/04/23  8:00p   51.3   51.8   51.2    73   42.9   2.0     E   0.33   6.0     S   51.3   50.9   50.9   47.9  29.654  0.00  0.00     0     0.00      0     0.0  0.00   0.0   0.095   0.000   72.0    46   50.1   70.7   8.61  .0731    0.001   203    7    100.0   10 
 2/04/23  8:10p   50.1   51.2   50.1    75   42.5   3.0     E   0.50   9.0    SE   49.8   49.9   49.6   46.6  29.649  0.00  0.00     0     0.00      0     0.0  0.00   0.0   0.103   0.000   71.9    46   50.0   70.6   8.61  .0731    0.000   204    7    100.0   10 
 2/04/23  8:20p   49.5   50.1   49.5    77   42.6   2.0     S   0.33   7.0     E   49.5   49.3   49.3   46.3  29.649  0.00  0.00     0     0.00      0     0.0  0.00   0.0   0.108   0.000   71.8    46   49.9   70.4   8.61  .0731    0.000   204    7    100.0   10 
 2/04/23  8:30p   49.2   49.5   49.2    77   42.3   2.0     E   0.33   6.0     E   49.2   49.0   49.0   46.0  29.644  0.00  0.00     0     0.00      0     0.0  0.00   0.0   0.110   0.000   71.7    46   49.8   70.2   8.62  .0731    0.000   202    7    100.0   10 
 2/04/23  8:40p   49.4   49.5   49.2    78   42.8   1.0    SE   0.17   5.0   SSW   49.4   49.3   49.3   46.3  29.648  0.00  0.00     0     0.00      0     0.0  0.00   0.0   0.108   0.000   71.5    46   49.6   69.9   8.62  .0731    0.000   203    7    100.0   10 
 2/04/23  8:50p   49.3   49.4   49.2    78   42.7   1.0   ESE   0.17   2.0    SE   49.3   49.1   49.1   46.1  29.645  0.00  0.00     0     0.00      0     0.0  0.00   0.0   0.109   0.000   71.4    46   49.5   69.8   8.62  .0731    0.000   202    7    100.0   10 
 2/04/23  9:00p   49.2   49.3   49.2    79   43.0   1.0     S   0.17   3.0     S   49.2   49.1   49.1   46.1  29.648  0.00  0.00     0     0.00      0     0.0  0.00   0.0   0.110   0.000   71.4    46   49.5   69.8   8.62  .0732    0.001   205    7    100.0   10 
 2/04/23  9:10p   49.0   49.3   49.0    79   42.8   1.0   ESE   0.17   3.0     S   49.0   48.9   48.9   45.9  29.649  0.00  0.00     0     0.00      0     0.0  0.00   0.0   0.111   0.000   71.2    46   49.4   69.5   8.63  .0732    0.000   202    7    100.0   10 
 2/04/23  9:20p   48.8   49.0   48.8    80   42.9   1.0   SSE   0.17   4.0    SE   48.8   48.7   48.7   45.7  29.664  0.00  0.00     0     0.00      0     0.0  0.00   0.0   0.113   0.000   71.2    46   49.4   69.5   8.63  .0732    0.000   199    7    100.0   10 
 2/04/23  9:30p   49.0   49.0   48.8    80   43.1   2.0    SE   0.33   5.0   SSW   49.0   48.9   48.9   46.0  29.665  0.00  0.00     0     0.00      0     0.0  0.00   0.0   0.111   0.000   71.1    46   49.3   69.3   8.63  .0732    0.000   203    7    100.0   10 
 2/04/23  9:40p   49.7   49.7   49.1    81   44.1   1.0     S   0.17   4.0     S   49.7   49.7   49.7   46.8  29.653  0.00  0.00     0     0.00      0     0.0  0.00   0.0   0.106   0.000   71.0    46   49.2   69.2   8.63  .0732    0.000   204    7    100.0   10 
 2/04/23  9:50p   49.3   49.7   49.3    81   43.7   1.0   ESE   0.17   2.0   ESE   49.3   49.3   49.3   46.4  29.648  0.00  0.00     0     0.00      0     0.0  0.00   0.0   0.109   0.000   70.9    46   49.1   69.1   8.63  .0732    0.000   204    7    100.0   10 
 2/04/23 10:00p   49.1   49.3   49.1    81   43.5   1.0    SE   0.17   2.0   ESE   49.1   49.0   49.0   46.1  29.641  0.00  0.00     0     0.00      0     0.0  0.00   0.0   0.110   0.000   70.8    46   49.0   68.9   8.63  .0732    0.001   202    7    100.0   10 
 2/04/23 10:10p   48.6   49.1   48.6    81   43.0   1.0   ESE   0.17   2.0    SE   48.6   48.5   48.5   45.6  29.640  0.00  0.00     0     0.00      0     0.0  0.00   0.0   0.114   0.000   70.8    46   49.0   68.9   8.63  .0732    0.000   203    7    100.0   10 
 2/04/23 10:20p   48.5   48.6   48.3    82   43.3   1.0   ESE   0.17   2.0   ESE   48.5   48.5   48.5   45.6  29.629  0.00  0.00     0     0.00      0     0.0  0.00   0.0   0.115   0.000   70.7    46   48.9   68.8   8.64  .0732    0.000   201    7    100.0   10 
 2/04/23 10:30p   48.2   48.5   48.1    82   43.0   1.0     E   0.17   3.0     E   48.2   48.1   48.1   45.1  29.620  0.00  0.00     0     0.00      0     0.0  0.00   0.0   0.117   0.000   70.6    46   48.8   68.7   8.64  .0732    0.000   202    7    100.0   10 
 2/04/23 10:40p   48.0   48.1   47.9    82   42.8   1.0     E   0.17   8.0   ENE   48.0   47.9   47.9   44.9  29.621  0.00  0.00     0     0.00      0     0.0  0.00   0.0   0.118   0.000   70.6    46   48.8   68.7   8.64  .0732    0.000   202    7    100.0   10 
 2/04/23 10:50p   47.8   47.9   47.8    83   42.9   6.0     E   1.00  11.0     E   45.1   47.8   45.1   42.1  29.615  0.00  0.00     0     0.00      0     0.0  0.00   0.0   0.119   0.000   70.5    46   48.7   68.6   8.64  .0732    0.000   201    7    100.0   10 
 2/04/23 11:00p   48.0   48.1   47.8    83   43.1   5.0     E   0.83  10.0     E   45.9   48.0   45.9   43.0  29.608  0.00  0.00     0     0.00      0     0.0  0.00   0.0   0.118   0.000   70.4    46   48.6   68.4   8.64  .0732    0.001   205    7    100.0   10 
 2/04/23 11:10p   48.3   48.3   48.1    83   43.4   3.0     E   0.50   8.0     E   47.7   48.3   47.7   44.8  29.595  0.00  0.00     0     0.00      0     0.0  0.00   0.0   0.116   0.000   70.4    46   48.6   68.4   8.64  .0732    0.000   202    7    100.0   10 
 2/04/23 11:20p   48.5   48.6   48.3    82   43.3   4.0     E   0.67   9.0   ENE   47.2   48.5   47.2   44.3  29.593  0.00  0.00     0     0.00      0     0.0  0.00   0.0   0.115   0.000   70.3    46   48.5   68.3   8.64  .0732    0.000   203    7    100.0   10 
 2/04/23 11:30p   48.5   48.6   48.5    82   43.3   5.0     E   0.83   9.0     E   46.5   48.5   46.5   43.6  29.590  0.00  0.00     0     0.00      0     0.0  0.00   0.0   0.115   0.000   70.2    46   48.4   68.2   8.65  .0732    0.000   204    7    100.0   10 
 2/04/23 11:40p   48.3   48.5   48.3    82   43.1   6.0     E   1.00  10.0   ESE   45.7   48.3   45.7   42.8  29.587  0.00  0.00     0     0.00      0     0.0  0.00   0.0   0.116   0.000   70.2    46   48.4   68.2   8.65  .0732    0.000   203    7    100.0   10 
 2/04/23 11:50p   48.1   48.4   48.0    83   43.2   6.0     E   1.00  11.0     E   45.4   48.1   45.4   42.5  29.586  0.00  0.00     0     0.00      0     0.0  0.00   0.0   0.117   0.000   70.1    46   48.4   68.0   8.65  .0732    0.000   202    7    100.0   10 
 2/05/23 12:00a   47.9   48.1   47.9    83   43.0   5.0     E   0.83   8.0     E   45.8   47.9   45.8   42.8  29.593  0.00  0.00     0     0.00      0     0.0  0.00   0.0   0.119   0.000   70.1    46   48.4   68.0   8.65  .0732    0.001   201    7    100.0   10 
 2/05/23 12:10a   47.8   47.9   47.8    83   42.9   4.0     E   0.67   8.0   ENE   46.4   47.8   46.4   43.4  29.595  0.00  0.00     0     0.00      0     0.0  0.00   0.0   0.119   0.000   70.0    46   48.3   67.9   8.65  .0733    0.000   203    7    100.0   10 
 2/05/23 12:20a   47.8   47.9   47.7    83   42.9   3.0     E   0.50   7.0   ESE   47.2   47.8   47.2   44.2  29.590  0.00  0.00     0     0.00      0     0.0  0.00   0.0   0.119   0.000   70.0    46   48.3   67.9   8.65  .0732    0.000   202    7    100.0   10 
 2/05/23 12:30a   47.9   47.9   47.7    84   43.3   1.0   ESE   0.17   4.0     E   47.9   47.9   47.9   45.0  29.588  0.00  0.00     0     0.00      0     0.0  0.00   0.0   0.119   0.000   69.9    46   48.2   67.8   8.65  .0733    0.000   200    7    100.0   10 
 2/05/23 12:40a   47.9   47.9   47.8    84   43.3   2.0    SE   0.33   8.0   SSE   47.9   47.9   47.9   45.0  29.589  0.00  0.00     0     0.00      0     0.0  0.00   0.0   0.119   0.000   69.9    46   48.2   67.8   8.65  .0733    0.000   203    7    100.0   10 
 2/05/23 12:50a   47.9   47.9   47.8    84   43.3   3.0     E   0.50   8.0    SE   47.3   47.9   47.3   44.4  29.590  0.00  0.00     0     0.00      0     0.0  0.00   0.0   0.119   0.000   69.8    46   48.1   67.8   8.65  .0733    0.000   203    7    100.0   10 
 2/05/23  1:00a   47.9   47.9   47.8    84   43.3   3.0     E   0.50   7.0     E   47.3   47.9   47.3   44.4  29.588  0.00  0.00     0     0.00      0     0.0  0.00   0.0   0.119   0.000   69.7    46   48.0   67.7   8.65  .0733    0.001   200    7    100.0   10 
 2/05/23  1:10a   47.8   47.9   47.8    84   43.2   3.0     E   0.50   7.0   ESE   47.2   47.8   47.2   44.3  29.590  0.00  0.00     0     0.00      0     0.0  0.00   0.0   0.119   0.000   69.7    45   47.4   67.6   8.46  .0733    0.000   202    7    100.0   10 
 2/05/23  1:20a   48.0   48.0   47.8    84   43.4   3.0     E   0.50   7.0   ENE   47.4   48.0   47.4   44.5  29.590  0.00  0.00     0     0.00      0     0.0  0.00   0.0   0.118   0.000   69.7    46   48.0   67.7   8.65  .0733    0.000   203    7    100.0   10 
 2/05/23  1:30a   48.1   48.1   47.9    83   43.2   3.0   ESE   0.50   6.0   ESE   47.5   48.1   47.5   44.6  29.594  0.00  0.00     0     0.00      0     0.0  0.00   0.0   0.117   0.000   69.6    45   47.3   67.5   8.46  .0733    0.000   202    7    100.0   10 
 2/05/23  1:40a   48.1   48.1   48.0    83   43.2   2.0     E   0.33   6.0   ESE   48.1   48.1   48.1   45.2  29.601  0.00  0.00     0     0.00      0     0.0  0.00   0.0   0.117   0.000   69.5    45   47.2   67.4   8.46  .0734    0.000   201    7    100.0   10 
 2/05/23  1:50a   48.5   48.5   48.0    83   43.6   2.0     S   0.33   6.0     S   48.5   48.5   48.5   45.6  29.604  0.00  0.00     0     0.00      0     0.0  0.00   0.0   0.115   0.000   69.5    45   47.2   67.4   8.46  .0734    0.000   204    7    100.0   10 
 2/05/23  2:00a   48.8   48.8   48.5    84   44.2   1.0    SE   0.17   4.0   SSE   48.8   48.8   48.8   45.9  29.606  0.00  0.00     0     0.00      0     0.0  0.00   0.0   0.113   0.000   69.4    45   47.1   67.4   8.46  .0734    0.001   204    7    100.0   10 
 2/05/23  2:10a   48.4   48.9   48.4    84   43.8   2.0     S   0.33   4.0     S   48.4   48.4   48.4   45.5  29.616  0.00  0.00     0     0.00      0     0.0  0.00   0.0   0.115   0.000   69.4    45   47.1   67.4   8.46  .0734    0.000   200    7    100.0   10 
 2/05/23  2:20a   47.9   48.4   47.9    84   43.3   0.0     S   0.00   1.0     S   47.9   47.9   47.9   45.0  29.622  0.00  0.00     0     0.00      0     0.0  0.00   0.0   0.119   0.000   69.3    45   47.0   67.3   8.46  .0735    0.000   202    7    100.0   10 
 2/05/23  2:30a   47.7   47.9   47.6    85   43.4   1.0    NE   0.17   4.0   NNW   47.7   47.7   47.7   44.8  29.634  0.00  0.00     0     0.00      0     0.0  0.00   0.0   0.120   0.000   69.2    45   46.9   67.2   8.47  .0735    0.000   203    7    100.0   10 
 2/05/23  2:40a   48.6   48.6   47.6    88   45.2   4.0    SW   0.67   9.0   SSE   47.3   48.8   47.5   44.6  29.641  0.00  0.00     0     0.00      0     0.0  0.00   0.0   0.114   0.000   69.2    45   46.9   67.2   8.47  .0735    0.000   202    7    100.0   10 
 2/05/23  2:50a   49.0   49.3   48.6    88   45.6   7.0     W   1.17  11.0     W   46.0   49.2   46.2   43.3  29.655  0.01  0.00     0     0.00      0     0.0  0.00   0.0   0.111   0.000   69.1    45   46.9   67.2   8.47  .0736    0.000   204    7    100.0   10 
 2/05/23  3:00a   47.9   49.0   47.9    91   45.4  16.0     W   2.67  28.0     W   40.5   48.1   40.7   38.6  29.673  0.01  0.06     0     0.00      0     0.0  0.00   0.0   0.119   0.000   69.0    45   46.8   67.1   8.47  .0736    0.001   204    7    100.0   10 
 2/05/23  3:10a   47.8   47.9   47.4    91   45.3  15.0     W   2.50  22.0     W   40.7   48.0   40.9   38.7  29.688  0.02  0.16     0     0.00      0     0.0  0.00   0.0   0.119   0.000   69.0    45   46.8   67.1   8.47  .0737    0.000   202    7    100.0   10 
 2/05/23  3:20a   48.1   48.1   47.8    91   45.6  10.0   WSW   1.67  17.0    SW   43.1   48.3   43.3   40.7  29.703  0.01  0.16     0     0.00      0     0.0  0.00   0.0   0.117   0.000   69.0    45   46.8   67.1   8.47  .0737    0.000   203    7    100.0   10 
 2/05/23  3:30a   48.7   48.8   48.1    92   46.5  13.0    SW   2.17  20.0   WSW   42.4   49.1   42.8   40.6  29.712  0.02  0.14     0     0.00      0     0.0  0.00   0.0   0.113   0.000   68.9    45   46.7   67.0   8.47  .0738    0.000   202    7    100.0   10 
 2/05/23  3:40a   49.0   49.1   48.7    94   47.3  16.0    SW   2.67  23.0    SW   41.7   49.5   42.2   40.2  29.725  0.03  0.31     0     0.00      0     0.0  0.00   0.0   0.111   0.000   68.8    44   46.0   66.8   8.35  .0738    0.000   203    7    100.0   10 
 2/05/23  3:50a   49.0   49.0   48.9    94   47.3  17.0    SW   2.83  27.0   SSE   41.5   49.5   42.0   40.0  29.740  0.04  0.56     0     0.00      0     0.0  0.00   0.0   0.111   0.000   68.8    44   46.0   66.8   8.35  .0739    0.000   203    7    100.0   10 
 2/05/23  4:00a   48.9   49.1   48.7    94   47.2  15.0   WSW   2.50  22.0   WSW   42.0   49.4   42.5   40.4  29.749  0.03  0.19     0     0.00      0     0.0  0.00   0.0   0.112   0.000   68.7    44   45.9   66.7   8.35  .0739    0.001   203    7    100.0   10 
 2/05/23  4:10a   48.8   49.0   48.8    94   47.2  15.0    SW   2.50  22.0    SW   41.9   49.2   42.3   40.2  29.757  0.02  0.23     0     0.00      0     0.0  0.00   0.0   0.113   0.000   68.6    44   45.8   66.6   8.35  .0739    0.000   203    7    100.0   10 
 2/05/23  4:20a   48.8   48.9   48.8    95   47.4  16.0    SW   2.67  23.0     S   41.5   49.3   42.0   40.0  29.768  0.01  0.30     0     0.00      0     0.0  0.00   0.0   0.113   0.000   68.6    44   45.8   66.6   8.35  .0740    0.000   202    7    100.0   10 
 2/05/23  4:30a   48.9   49.0   48.7    94   47.2  16.0    SW   2.67  23.0    SE   41.6   49.4   42.1   40.1  29.778  0.01  0.07     0     0.00      0     0.0  0.00   0.0   0.112   0.000   68.5    44   45.7   66.5   8.35  .0740    0.000   202    7    100.0   10 
 2/05/23  4:40a   48.5   49.0   48.5    94   46.9  17.0    SW   2.83  23.0    SW   40.9   48.9   41.3   39.3  29.789  0.01  0.06     0     0.00      0     0.0  0.00   0.0   0.115   0.000   68.4    44   45.6   66.4   8.35  .0740    0.000   198    7    100.0   10 
 2/05/23  4:50a   48.5   48.6   48.5    94   46.9  16.0   WSW   2.67  21.0    SW   41.2   48.9   41.6   39.6  29.797  0.00  0.04     0     0.00      0     0.0  0.00   0.0   0.115   0.000   68.4    44   45.6   66.4   8.35  .0741    0.000   203    7    100.0   10 
 2/05/23  5:00a   48.8   48.9   48.6    94   47.2  13.0   WSW   2.17  18.0   WSW   42.5   49.2   42.9   40.7  29.805  0.00  0.00     0     0.00      0     0.0  0.00   0.0   0.113   0.000   68.3    44   45.5   66.4   8.35  .0741    0.001   201    7    100.0   10 
 2/05/23  5:10a   48.9   48.9   48.8    94   47.2  12.0    SW   2.00  17.0    SW   43.1   49.4   43.6   41.3  29.812  0.01  0.00     0     0.00      0     0.0  0.00   0.0   0.112   0.000   68.3    44   45.5   66.4   8.35  .0741    0.000   203    7    100.0   10 
 2/05/23  5:20a   48.8   49.1   48.7    93   46.9  12.0    SW   2.00  18.0   WSW   43.0   49.2   43.4   41.1  29.818  0.00  0.00     0     0.00      0     0.0  0.00   0.0   0.113   0.000   68.2    44   45.4   66.3   8.35  .0742    0.000   201    7    100.0   10 
 2/05/23  5:30a   49.0   49.0   48.7    94   47.3  12.0    SW   2.00  16.0    SW   43.2   49.5   43.7   41.4  29.825  0.00  0.00     0     0.00      0     0.0  0.00   0.0   0.111   0.000   68.2    44   45.4   66.3   8.35  .0742    0.000   202    7    100.0   10 
 2/05/23  5:40a   48.8   49.0   48.7    94   47.2  11.0    SW   1.83  16.0    SW   43.4   49.2   43.8   41.4  29.831  0.02  0.08     0     0.00      0     0.0  0.00   0.0   0.113   0.000   68.1    45   45.9   66.3   8.49  .0742    0.000   200    7    100.0   10 
 2/05/23  5:50a   48.5   48.8   48.4    94   46.9   9.0   SSW   1.50  17.0   SSE   44.1   48.9   44.5   41.9  29.838  0.00  0.06     0     0.00      0     0.0  0.00   0.0   0.115   0.000   68.2    45   46.0   66.4   8.49  .0742    0.000   205    7    100.0   10 
 2/05/23  6:00a   48.9   48.9   48.5    94   47.2  10.0     S   1.67  15.0   SSE   44.0   49.4   44.5   42.0  29.842  0.00  0.00     0     0.00      0     0.0  0.00   0.0   0.112   0.000   68.2    45   46.0   66.4   8.49  .0742    0.000   202    7    100.0   10 
 2/05/23  6:10a   49.4   49.4   48.9    93   47.5  12.0    SW   2.00  18.0   SSW   43.6   49.8   44.0   41.7  29.850  0.00  0.00     0     0.00      0     0.0  0.00   0.0   0.108   0.000   68.3    45   46.1   66.5   8.48  .0742    0.000   204    7    100.0   10 
 2/05/23  6:20a   49.5   49.6   49.4    92   47.3  12.0    SW   2.00  17.0    SW   43.8   49.9   44.2   41.9  29.857  0.00  0.00     0     0.00      0     0.0  0.00   0.0   0.108   0.000   68.4    45   46.2   66.6   8.48  .0742    0.000   203    7    100.0   10 
 2/05/23  6:30a   49.3   49.6   49.3    92   47.1  12.0    SW   2.00  19.0   SSE   43.5   49.7   43.9   41.6  29.862  0.00  0.00     0     0.00      0     0.0  0.00   0.0   0.109   0.000   68.5    45   46.3   66.6   8.48  .0742    0.000   202    7    100.0   10 
 2/05/23  6:40a   48.7   49.3   48.7    92   46.5  12.0    SW   2.00  16.0   SSW   42.8   49.1   43.2   40.9  29.871  0.00  0.00     0     0.00      0     0.0  0.00   0.0   0.113   0.000   68.6    45   46.4   66.7   8.48  .0742    0.000   202    7    100.0   10 
 2/05/23  6:50a   48.8   48.8   48.6    92   46.6  10.0   SSW   1.67  15.0   SSE   43.9   49.2   44.3   41.8  29.879  0.00  0.00     0     0.00      0     0.0  0.00   0.0   0.113   0.000   68.8    45   46.6   66.9   8.47  .0742    0.000   203    7    100.0   10 
 2/05/23  7:00a   49.0   49.1   48.8    92   46.8  11.0    SW   1.83  17.0     S   43.6   49.4   44.0   41.6  29.888  0.00  0.00     0     0.00      0     0.0  0.00   0.0   0.111   0.000   68.9    45   46.7   67.0   8.47  .0742    0.001   200    7    100.0   10 
 2/05/23  7:10a   49.2   49.3   49.0    92   47.0  11.0    SW   1.83  16.0   SSE   43.8   49.6   44.2   41.8  29.894  0.00  0.00     0     0.00      0     0.0  0.00   0.0   0.110   0.000   69.0    45   46.8   67.1   8.47  .0742    0.000   201    7    100.0   10 
 2/05/23  7:20a   47.6   49.2   47.5    92   45.4  13.0     W   2.17  20.0     W   41.2   47.9   41.5   39.2  29.905  0.00  0.00     0     0.00      0     0.0  0.00   0.0   0.121   0.000   69.2    45   46.9   67.2   8.47  .0742    0.000   203    7    100.0   10 
 2/05/23  7:30a   47.7   48.0   47.4    93   45.8   9.0    SW   1.50  15.0    SW   43.1   48.0   43.4   40.8  29.914  0.01  0.00     0     0.00      0     0.0  0.00   0.0   0.120   0.000   69.4    45   47.1   67.4   8.46  .0742    0.000   202    7    100.0   10 
 2/05/23  7:40a   47.8   47.9   47.7    93   45.9   9.0    SW   1.50  12.0    SW   43.3   48.1   43.6   41.0  29.920  0.00  0.00     0     0.00      0     0.0  0.00   0.0   0.119   0.000   69.4    45   47.1   67.4   8.46  .0742    0.000   203    7    100.0   10 
 2/05/23  7:50a   48.3   48.3   47.8    94   46.7   8.0    SW   1.33  11.0    SW   44.5   48.7   44.9   42.3  29.926  0.00  0.00     6     0.09     11     0.0  0.00   0.0   0.116   0.000   69.4    45   47.1   67.4   8.46  .0742    0.000   202    7    100.0   10 
 2/05/23  8:00a   48.7   48.7   48.3    93   46.8   8.0    SW   1.33  12.0   SSE   44.9   49.1   45.3   42.9  29.932  0.00  0.00    13     0.19     16     0.0  0.00   0.0   0.113   0.000   69.5    45   47.2   67.4   8.46  .0742    0.001   204    7    100.0   10 
 2/05/23  8:10a   48.9   48.9   48.7    93   47.0   8.0     S   1.33  13.0   SSE   45.2   49.3   45.6   43.3  29.940  0.00  0.00    20     0.29     25     0.0  0.00   0.0   0.112   0.000   69.5    45   47.2   67.4   8.46  .0742    0.000   204    7    100.0   10 
 2/05/23  8:20a   49.3   49.4   48.9    92   47.1  11.0    SW   1.83  16.0    SW   44.0   49.7   44.4   42.5  29.948  0.00  0.00    25     0.36     28     0.0  0.00   0.0   0.109   0.000   69.7    45   47.4   67.6   8.46  .0742    0.000   200    7    100.0   10 
 2/05/23  8:30a   49.0   49.3   48.9    92   46.8  10.0    SW   1.67  14.0    SW   44.1   49.4   44.5   42.6  29.955  0.00  0.00    28     0.40     32     0.0  0.00   0.0   0.111   0.000   69.8    45   47.5   67.7   8.45  .0742    0.000   203    7    100.0   10 
 2/05/23  8:40a   49.4   49.4   49.1    92   47.2   9.0    SW   1.50  12.0    SW   45.2   49.8   45.6   43.8  29.959  0.00  0.00    32     0.46     35     0.0  0.00   0.0   0.108   0.000   69.9    45   47.6   67.7   8.45  .0742    0.000   204    7    100.0   10 
 2/05/23  8:50a   49.2   49.5   49.2    91   46.7  12.0    SW   2.00  17.0    SW   43.4   49.5   43.7   43.4  29.967  0.00  0.00    35     0.50     39     0.0  0.00   0.0   0.110   0.000   70.0    45   47.7   67.8   8.45  .0742    0.000   203    7    100.0   10 
 2/05/23  9:00a   49.3   49.3   49.2    91   46.8  11.0    SW   1.83  16.0    SW   44.0   49.6   44.3   44.2  29.973  0.00  0.00    42     0.60     47     0.0  0.00   0.0   0.109   0.000   70.0    45   47.7   67.8   8.45  .0742    0.001   204    7    100.0   10 
 2/05/23  9:10a   49.4   49.5   49.3    91   46.9  10.0    SW   1.67  14.0    SW   44.6   49.7   44.9   45.3  29.980  0.00  0.00    56     0.80     63     0.0  0.00   0.0   0.108   0.000   70.0    45   47.7   67.8   8.45  .0742    0.000   202    7    100.0   10 
 2/05/23  9:20a   49.4   49.5   49.3    90   46.6  11.0    SW   1.83  15.0   WSW   44.1   49.7   44.4   45.1  29.988  0.00  0.00    65     0.93     76     0.0  0.00   0.0   0.108   0.000   70.1    45   47.8   67.9   8.45  .0742    0.000   203    7    100.0   10 
 2/05/23  9:30a   49.4   49.5   49.3    90   46.6  11.0    SW   1.83  15.0    SW   44.1   49.7   44.4   45.4  29.992  0.00  0.00    74     1.06     79     0.0  0.00   0.0   0.108   0.000   70.1    45   47.8   67.9   8.45  .0743    0.000   199    7    100.0   10 
 2/05/23  9:40a   49.6   49.6   49.4    90   46.8  10.0    SW   1.67  14.0   SSE   44.8   49.9   45.1   46.4  30.001  0.00  0.00    83     1.19    113     0.0  0.00   0.0   0.107   0.000   70.2    45   47.9   68.1   8.45  .0743    0.000   205    7    100.0   10 
 2/05/23  9:50a   49.7   49.7   49.5    90   46.9  11.0    SW   1.83  15.0    SW   44.4   50.0   44.7   47.8  30.007  0.00  0.00   140     2.01    151     0.3  0.02   0.5   0.106   0.000   70.4    45   48.0   68.3   8.45  .0742    0.000   203    7    100.0   10 
 2/05/23 10:00a   49.7   49.7   49.6    90   46.9  11.0    SW   1.83  16.0   WSW   44.4   50.0   44.7   48.1  30.015  0.00  0.00   153     2.19    171     0.5  0.04   0.6   0.106   0.000   70.5    45   48.1   68.4   8.45  .0742    0.002   202    7    100.0   10 
 2/05/23 10:10a   49.0   49.7   49.0    90   46.2  15.0   WSW   2.50  20.0   WSW   42.1   49.3   42.4   44.9  30.023  0.00  0.00   139     1.99    155     0.1  0.01   0.5   0.111   0.000   70.5    45   48.1   68.4   8.45  .0743    0.000   198    7    100.0   10 
 2/05/23 10:20a   49.2   49.2   48.9    91   46.7  12.0   WSW   2.00  16.0   WSW   43.4   49.5   43.7   46.7  30.028  0.00  0.00   145     2.08    171     0.5  0.04   0.6   0.110   0.000   70.5    45   48.1   68.4   8.45  .0743    0.000   202    7    100.0   10 
 2/05/23 10:30a   49.2   49.4   49.1    90   46.4  12.0   WSW   2.00  16.0   WSW   43.4   49.5   43.7   46.4  30.033  0.00  0.00   140     2.01    171     0.6  0.04   0.7   0.110   0.000   70.4    45   48.0   68.3   8.45  .0743    0.000   201    7    100.0   10 
 2/05/23 10:40a   49.5   49.5   49.2    90   46.7  11.0   WSW   1.83  16.0     W   44.2   49.8   44.5   49.7  30.042  0.00  0.00   230     3.30    271     0.8  0.06   0.9   0.108   0.000   70.4    45   48.0   68.3   8.45  .0743    0.000   204    7    100.0   10 
 2/05/23 10:50a   49.5   49.6   49.4    90   46.7  11.0    SW   1.83  15.0   WSW   44.2   49.8   44.5   50.9  30.049  0.00  0.00   285     4.09    334     0.9  0.06   1.0   0.108   0.000   70.5    45   48.1   68.4   8.45  .0743    0.000   202    7    100.0   10 
 2/05/23 11:00a   49.3   49.6   49.3    89   46.2  11.0    SW   1.83  16.0   WSW   44.0   49.6   44.3   49.9  30.054  0.00  0.00   251     3.60    316     0.8  0.06   0.9   0.109   0.000   70.7    45   48.3   68.7   8.45  .0743    0.004   205    7    100.0   10 
 2/05/23 11:10a   49.3   49.3   49.1    91   46.8  10.0    SW   1.67  15.0   WSW   44.5   49.6   44.8   49.6  30.060  0.00  0.00   213     3.05    221     0.8  0.06   0.9   0.109   0.000   70.8    45   48.4   68.8   8.45  .0743    0.000   204    7    100.0   10 
 2/05/23 11:20a   49.3   49.4   49.2    91   46.8  12.0   WSW   2.00  16.0   WSW   43.5   49.6   43.8   46.8  30.064  0.00  0.00   158     2.26    176     0.6  0.04   0.7   0.109   0.000   70.8    45   48.4   68.8   8.45  .0743    0.000   203    7    100.0   10 
 2/05/23 11:30a   49.0   49.3   49.0    91   46.5  11.0   WSW   1.83  16.0   WSW   43.6   49.3   43.9   46.6  30.069  0.00  0.00   143     2.05    153     0.7  0.05   0.7   0.111   0.000   70.8    45   48.4   68.8   8.45  .0743    0.000   204    7    100.0   10 
 2/05/23 11:40a   49.0   49.1   48.9    90   46.2  12.0     W   2.00  18.0     W   43.2   49.3   43.5   44.2  30.073  0.00  0.00    77     1.10    104     0.2  0.01   0.5   0.111   0.000   70.8    45   48.4   68.8   8.45  .0743    0.000   203    7    100.0   10 
Email: AdamSPAM@StormwatchersRetreat.com (To send me email remove the word 'SPAM' from my email address.)